sensor_id;sensor_type;location;lat;lon;timestamp;pressure;altitude;pressure_sealevel;temperature;humidity
59240;BME280;45010;53.640;10.578;2023-03-19T00:02:00;100602.00;;;25.64;32.77
59240;BME280;45010;53.640;10.578;2023-03-19T00:05:00;100592.84;;;25.60;32.72
59240;BME280;45010;53.640;10.578;2023-03-19T00:08:01;100586.53;;;25.67;32.74
59240;BME280;45010;53.640;10.578;2023-03-19T00:11:06;100569.38;;;25.62;32.64
59240;BME280;45010;53.640;10.578;2023-03-19T00:14:06;100589.19;;;25.67;32.45
59240;BME280;45010;53.640;10.578;2023-03-19T00:17:06;100580.13;;;25.68;32.71
59240;BME280;45010;53.640;10.578;2023-03-19T00:20:09;100565.91;;;25.62;32.78
59240;BME280;45010;53.640;10.578;2023-03-19T00:23:10;100573.75;;;25.69;32.33
59240;BME280;45010;53.640;10.578;2023-03-19T00:26:10;100578.53;;;25.67;32.36
59240;BME280;45010;53.640;10.578;2023-03-19T00:29:11;100574.78;;;25.68;32.55
59240;BME280;45010;53.640;10.578;2023-03-19T00:32:12;100573.75;;;25.69;32.51
59240;BME280;45010;53.640;10.578;2023-03-19T00:35:12;100564.50;;;25.59;32.48
59240;BME280;45010;53.640;10.578;2023-03-19T00:38:13;100576.44;;;25.69;32.55
59240;BME280;45010;53.640;10.578;2023-03-19T00:41:13;100590.34;;;25.71;32.47
59240;BME280;45010;53.640;10.578;2023-03-19T00:44:17;100589.53;;;25.70;32.64
59240;BME280;45010;53.640;10.578;2023-03-19T00:47:18;100582.81;;;25.68;32.42
59240;BME280;45010;53.640;10.578;2023-03-19T00:50:18;100596.47;;;25.71;32.79
59240;BME280;45010;53.640;10.578;2023-03-19T00:53:18;100579.34;;;25.67;32.33
59240;BME280;45010;53.640;10.578;2023-03-19T00:56:19;100591.50;;;25.75;32.08
59240;BME280;45010;53.640;10.578;2023-03-19T00:59:19;100584.50;;;25.74;32.01
59240;BME280;45010;53.640;10.578;2023-03-19T01:02:20;100585.31;;;25.74;31.97
59240;BME280;45010;53.640;10.578;2023-03-19T01:05:20;100578.53;;;25.67;32.08
59240;BME280;45010;53.640;10.578;2023-03-19T01:08:20;100589.28;;;25.72;32.12
59240;BME280;45010;53.640;10.578;2023-03-19T01:11:21;100583.38;;;25.70;32.17
59240;BME280;45010;53.640;10.578;2023-03-19T01:14:21;100581.78;;;25.69;32.17
59240;BME280;45010;53.640;10.578;2023-03-19T01:17:21;100573.09;;;25.61;32.19
59240;BME280;45010;53.640;10.578;2023-03-19T01:20:22;100587.59;;;25.65;31.98
59240;BME280;45010;53.640;10.578;2023-03-19T01:23:23;100580.06;;;25.62;32.11
59240;BME280;45010;53.640;10.578;2023-03-19T01:26:23;100578.69;;;25.60;31.98
59240;BME280;45010;53.640;10.578;2023-03-19T01:29:24;100581.00;;;25.56;32.04
59240;BME280;45010;53.640;10.578;2023-03-19T01:32:24;100586.63;;;25.55;32.19
59240;BME280;45010;53.640;10.578;2023-03-19T01:35:25;100594.84;;;25.53;32.02
59240;BME280;45010;53.640;10.578;2023-03-19T01:38:25;100590.78;;;25.50;32.08
59240;BME280;45010;53.640;10.578;2023-03-19T01:41:25;100591.00;;;25.49;31.94
59240;BME280;45010;53.640;10.578;2023-03-19T01:44:31;100592.28;;;25.46;32.22
59240;BME280;45010;53.640;10.578;2023-03-19T01:47:35;100573.78;;;25.39;32.33
59240;BME280;45010;53.640;10.578;2023-03-19T01:50:41;100574.25;;;25.36;32.19
59240;BME280;45010;53.640;10.578;2023-03-19T01:53:45;100573.78;;;25.39;32.06
59240;BME280;45010;53.640;10.578;2023-03-19T01:56:57;100575.84;;;25.37;32.32
59240;BME280;45010;53.640;10.578;2023-03-19T02:00:00;100576.34;;;25.34;32.29
59240;BME280;45010;53.640;10.578;2023-03-19T02:03:03;100580.06;;;25.33;32.05
59240;BME280;45010;53.640;10.578;2023-03-19T02:06:04;100575.19;;;25.30;32.26
59240;BME280;45010;53.640;10.578;2023-03-19T02:09:05;100571.97;;;25.28;32.27
59240;BME280;45010;53.640;10.578;2023-03-19T02:12:07;100568.75;;;25.26;32.11
59240;BME280;45010;53.640;10.578;2023-03-19T02:15:08;100576.16;;;25.24;32.20
59240;BME280;45010;53.640;10.578;2023-03-19T02:18:09;100575.38;;;25.23;32.18
59240;BME280;45010;53.640;10.578;2023-03-19T02:21:16;100560.88;;;25.19;32.27
59240;BME280;45010;53.640;10.578;2023-03-19T02:24:25;100546.44;;;25.03;32.29
59240;BME280;45010;53.640;10.578;2023-03-19T02:27:28;100582.47;;;25.18;32.28
59240;BME280;45010;53.640;10.578;2023-03-19T02:30:31;100560.44;;;25.10;32.35
59240;BME280;45010;53.640;10.578;2023-03-19T02:33:32;100566.13;;;25.14;32.36
59240;BME280;45010;53.640;10.578;2023-03-19T02:36:35;100559.28;;;25.06;32.33
59240;BME280;45010;53.640;10.578;2023-03-19T02:39:45;100568.69;;;25.09;32.35
59240;BME280;45010;53.640;10.578;2023-03-19T02:42:47;100575.91;;;25.08;32.32
59240;BME280;45010;53.640;10.578;2023-03-19T02:45:48;100558.06;;;24.97;32.18
59240;BME280;45010;53.640;10.578;2023-03-19T02:48:48;100579.03;;;25.05;32.22
59240;BME280;45010;53.640;10.578;2023-03-19T02:51:49;100577.31;;;24.99;32.16
59240;BME280;45010;53.640;10.578;2023-03-19T02:54:50;100586.47;;;25.03;32.30
59240;BME280;45010;53.640;10.578;2023-03-19T02:57:51;100584.84;;;25.02;32.36
59240;BME280;45010;53.640;10.578;2023-03-19T03:00:51;100596.81;;;25.00;32.44
59240;BME280;45010;53.640;10.578;2023-03-19T03:03:51;100599.69;;;24.98;32.35
59240;BME280;45010;53.640;10.578;2023-03-19T03:06:52;100595.41;;;24.97;32.35
59240;BME280;45010;53.640;10.578;2023-03-19T03:09:52;100587.88;;;24.94;32.30
59240;BME280;45010;53.640;10.578;2023-03-19T03:12:52;100557.41;;;24.78;32.31
59240;BME280;45010;53.640;10.578;2023-03-19T03:15:53;100584.66;;;24.92;32.42
59240;BME280;45010;53.640;10.578;2023-03-19T03:18:53;100586.72;;;24.90;32.39
59240;BME280;45010;53.640;10.578;2023-03-19T03:21:53;100586.72;;;24.90;32.45
59240;BME280;45010;53.640;10.578;2023-03-19T03:24:54;100576.19;;;24.83;32.53
59240;BME280;45010;53.640;10.578;2023-03-19T03:27:54;100588.03;;;24.87;32.50
59240;BME280;45010;53.640;10.578;2023-03-19T03:30:59;100584.78;;;24.85;32.38
59240;BME280;45010;53.640;10.578;2023-03-19T03:34:00;100582.78;;;24.80;32.50
59240;BME280;45010;53.640;10.578;2023-03-19T03:37:00;100596.13;;;24.80;32.43
59240;BME280;45010;53.640;10.578;2023-03-19T03:40:01;100586.97;;;24.76;32.59
59240;BME280;45010;53.640;10.578;2023-03-19T03:43:05;100601.47;;;24.80;32.51
59240;BME280;45010;53.640;10.578;2023-03-19T03:46:06;100604.13;;;24.80;32.40
59240;BME280;45010;53.640;10.578;2023-03-19T03:49:08;100592.78;;;24.73;32.32
59240;BME280;45010;53.640;10.578;2023-03-19T03:52:09;100598.44;;;24.77;32.55
59240;BME280;45010;53.640;10.578;2023-03-19T03:55:09;100597.63;;;24.76;32.55
59240;BME280;45010;53.640;10.578;2023-03-19T03:58:09;100596.00;;;24.75;32.42
59240;BME280;45010;53.640;10.578;2023-03-19T04:01:17;100595.19;;;24.75;32.54
59240;BME280;45010;53.640;10.578;2023-03-19T04:04:18;100592.78;;;24.73;32.60
59240;BME280;45010;53.640;10.578;2023-03-19T04:07:19;100593.84;;;24.72;32.57
59240;BME280;45010;53.640;10.578;2023-03-19T04:10:19;100588.84;;;24.64;32.59
59240;BME280;45010;53.640;10.578;2023-03-19T04:13:20;100596.72;;;24.70;32.57
59240;BME280;45010;53.640;10.578;2023-03-19T04:16:20;100594.28;;;24.69;32.62
59240;BME280;45010;53.640;10.578;2023-03-19T04:19:21;100593.47;;;24.68;32.64
59240;BME280;45010;53.640;10.578;2023-03-19T04:22:21;100593.72;;;24.67;32.56
59240;BME280;45010;53.640;10.578;2023-03-19T04:25:22;100597.44;;;24.66;32.77
59240;BME280;45010;53.640;10.578;2023-03-19T04:28:22;100590.47;;;24.65;32.86
59240;BME280;45010;53.640;10.578;2023-03-19T04:31:22;100588.06;;;24.63;32.29
59240;BME280;45010;53.640;10.578;2023-03-19T04:34:23;100583.50;;;24.64;32.68
59240;BME280;45010;53.640;10.578;2023-03-19T04:37:23;100586.41;;;24.62;32.66
59240;BME280;45010;53.640;10.578;2023-03-19T04:40:24;100574.00;;;24.56;32.62
59240;BME280;45010;53.640;10.578;2023-03-19T04:43:24;100579.47;;;24.61;32.71
59240;BME280;45010;53.640;10.578;2023-03-19T04:46:24;100575.06;;;24.55;32.76
59240;BME280;45010;53.640;10.578;2023-03-19T04:49:25;100589.34;;;24.61;32.59
59240;BME280;45010;53.640;10.578;2023-03-19T04:52:25;100581.78;;;24.57;32.82
59240;BME280;45010;53.640;10.578;2023-03-19T04:55:26;100591.41;;;24.58;32.80
59240;BME280;45010;53.640;10.578;2023-03-19T04:58:27;100596.72;;;24.58;32.76
59240;BME280;45010;53.640;10.578;2023-03-19T05:01:27;100589.78;;;24.57;32.66
59240;BME280;45010;53.640;10.578;2023-03-19T05:04:27;100596.72;;;24.58;32.90
59240;BME280;45010;53.640;10.578;2023-03-19T05:07:28;100593.50;;;24.56;32.82
59240;BME280;45010;53.640;10.578;2023-03-19T05:10:28;100598.84;;;24.56;32.67
59240;BME280;45010;53.640;10.578;2023-03-19T05:13:29;100581.94;;;24.51;32.86
59240;BME280;45010;53.640;10.578;2023-03-19T05:16:29;100590.25;;;24.54;32.65
59240;BME280;45010;53.640;10.578;2023-03-19T05:19:29;100588.63;;;24.53;32.91
59240;BME280;45010;53.640;10.578;2023-03-19T05:22:30;100589.22;;;24.55;32.75
59240;BME280;45010;53.640;10.578;2023-03-19T05:25:33;100574.38;;;24.48;32.84
59240;BME280;45010;53.640;10.578;2023-03-19T05:28:34;100595.00;;;24.52;32.78
59240;BME280;45010;53.640;10.578;2023-03-19T05:31:35;100591.28;;;24.53;32.90
59240;BME280;45010;53.640;10.578;2023-03-19T05:34:36;100596.88;;;24.52;32.85
59240;BME280;45010;53.640;10.578;2023-03-19T05:37:36;100597.66;;;24.52;32.77
59240;BME280;45010;53.640;10.578;2023-03-19T05:40:36;100586.31;;;24.45;32.93
59240;BME280;45010;53.640;10.578;2023-03-19T05:43:37;100596.06;;;24.51;33.16
59240;BME280;45010;53.640;10.578;2023-03-19T05:46:37;100592.94;;;24.42;33.03
59240;BME280;45010;53.640;10.578;2023-03-19T05:49:37;100609.59;;;24.50;33.08
59240;BME280;45010;53.640;10.578;2023-03-19T05:52:38;100605.09;;;24.50;32.92
59240;BME280;45010;53.640;10.578;2023-03-19T05:55:38;100603.47;;;24.49;33.15
59240;BME280;45010;53.640;10.578;2023-03-19T05:58:38;100608.81;;;24.49;33.00
59240;BME280;45010;53.640;10.578;2023-03-19T06:01:39;100607.19;;;24.48;33.26
59240;BME280;45010;53.640;10.578;2023-03-19T06:04:39;100601.03;;;24.48;33.09
59240;BME280;45010;53.640;10.578;2023-03-19T06:07:40;100594.88;;;24.47;33.26
59240;BME280;45010;53.640;10.578;2023-03-19T06:10:40;100602.31;;;24.45;32.69
59240;BME280;45010;53.640;10.578;2023-03-19T06:13:40;100607.19;;;24.48;33.31
59240;BME280;45010;53.640;10.578;2023-03-19T06:16:42;100605.47;;;24.42;32.87
59240;BME280;45010;53.640;10.578;2023-03-19T06:19:42;100609.25;;;24.46;33.29
59240;BME280;45010;53.640;10.578;2023-03-19T06:22:43;100614.59;;;24.46;33.17
59240;BME280;45010;53.640;10.578;2023-03-19T06:25:43;100609.25;;;24.46;33.27
59240;BME280;45010;53.640;10.578;2023-03-19T06:28:43;100613.81;;;24.45;33.30
59240;BME280;45010;53.640;10.578;2023-03-19T06:31:44;100609.25;;;24.46;33.14
59240;BME280;45010;53.640;10.578;2023-03-19T06:34:44;100616.22;;;24.47;33.12
59240;BME280;45010;53.640;10.578;2023-03-19T06:37:44;100621.53;;;24.47;33.09
59240;BME280;45010;53.640;10.578;2023-03-19T06:40:45;100623.66;;;24.45;33.05
59240;BME280;45010;53.640;10.578;2023-03-19T06:43:46;100615.19;;;24.36;33.07
59240;BME280;45010;53.640;10.578;2023-03-19T06:46:46;100612.19;;;24.33;33.06
59240;BME280;45010;53.640;10.578;2023-03-19T06:49:46;100628.97;;;24.45;33.27
59240;BME280;45010;53.640;10.578;2023-03-19T06:52:47;100630.03;;;24.44;33.24
59240;BME280;45010;53.640;10.578;2023-03-19T06:55:47;100632.69;;;24.44;33.28
59240;BME280;45010;53.640;10.578;2023-03-19T06:58:47;100624.13;;;24.42;33.20
59240;BME280;45010;53.640;10.578;2023-03-19T07:01:48;100631.06;;;24.43;33.22
59240;BME280;45010;53.640;10.578;2023-03-19T07:04:48;100627.25;;;24.39;33.40
59240;BME280;45010;53.640;10.578;2023-03-19T07:07:48;100633.75;;;24.43;33.31
59240;BME280;45010;53.640;10.578;2023-03-19T07:10:49;100634.78;;;24.42;33.62
59240;BME280;45010;53.640;10.578;2023-03-19T07:13:49;100640.91;;;24.42;33.54
59240;BME280;45010;53.640;10.578;2023-03-19T07:16:49;100634.78;;;24.42;33.53
59240;BME280;45010;53.640;10.578;2023-03-19T07:19:50;100640.22;;;24.35;33.37
59240;BME280;45010;53.640;10.578;2023-03-19T07:22:51;100633.84;;;24.36;33.69
59240;BME280;45010;53.640;10.578;2023-03-19T07:25:52;100645.44;;;24.42;33.41
59240;BME280;45010;53.640;10.578;2023-03-19T07:28:52;100653.44;;;24.42;33.59
59240;BME280;45010;53.640;10.578;2023-03-19T07:31:52;100644.63;;;24.41;33.43
59240;BME280;45010;53.640;10.578;2023-03-19T07:34:52;100642.78;;;24.42;33.39
59240;BME280;45010;53.640;10.578;2023-03-19T07:37:53;100652.41;;;24.43;33.48
59240;BME280;45010;53.640;10.578;2023-03-19T07:40:53;100626.44;;;24.26;33.35
59240;BME280;45010;53.640;10.578;2023-03-19T07:43:54;100655.28;;;24.41;33.57
59240;BME280;45010;53.640;10.578;2023-03-19T07:46:54;100656.13;;;24.42;33.43
59240;BME280;45010;53.640;10.578;2023-03-19T07:49:54;100661.44;;;24.42;33.56
59240;BME280;45010;53.640;10.578;2023-03-19T07:52:55;100645.44;;;24.30;33.61
59240;BME280;45010;53.640;10.578;2023-03-19T07:55:56;100656.56;;;24.39;33.47
59240;BME280;45010;53.640;10.578;2023-03-19T07:58:56;100662.25;;;24.42;33.59
59240;BME280;45010;53.640;10.578;2023-03-19T08:01:56;100668.41;;;24.43;33.55
59240;BME280;45010;53.640;10.578;2023-03-19T08:04:57;100662.25;;;24.42;33.55
59240;BME280;45010;53.640;10.578;2023-03-19T08:07:57;100663.06;;;24.43;33.57
59240;BME280;45010;53.640;10.578;2023-03-19T08:10:58;100663.06;;;24.43;33.58
59240;BME280;45010;53.640;10.578;2023-03-19T08:13:58;100662.25;;;24.42;33.28
59240;BME280;45010;53.640;10.578;2023-03-19T08:16:58;100620.28;;;24.14;33.64
59240;BME280;45010;53.640;10.578;2023-03-19T08:19:59;100667.13;;;24.45;33.48
59240;BME280;45010;53.640;10.578;2023-03-19T08:22:59;100666.28;;;24.45;33.60
59240;BME280;45010;53.640;10.578;2023-03-19T08:26:00;100671.63;;;24.45;33.68
59240;BME280;45010;53.640;10.578;2023-03-19T08:29:01;100671.63;;;24.45;33.54
59240;BME280;45010;53.640;10.578;2023-03-19T08:32:03;100667.91;;;24.46;33.47
59240;BME280;45010;53.640;10.578;2023-03-19T08:35:04;100670.56;;;24.46;33.66
59240;BME280;45010;53.640;10.578;2023-03-19T08:38:05;100665.50;;;24.44;33.75
59240;BME280;45010;53.640;10.578;2023-03-19T08:41:07;100653.31;;;24.37;33.57
59240;BME280;45010;53.640;10.578;2023-03-19T08:44:08;100665.03;;;24.48;33.66
59240;BME280;45010;53.640;10.578;2023-03-19T08:47:09;100668.41;;;24.43;33.69
59240;BME280;45010;53.640;10.578;2023-03-19T08:50:10;100678.13;;;24.49;33.63
59240;BME280;45010;53.640;10.578;2023-03-19T08:53:11;100677.09;;;24.50;33.62
59240;BME280;45010;53.640;10.578;2023-03-19T08:56:11;100675.47;;;24.49;33.77
59240;BME280;45010;53.640;10.578;2023-03-19T08:59:11;100673.59;;;24.50;33.76
59240;BME280;45010;53.640;10.578;2023-03-19T09:02:12;100679.75;;;24.50;33.93
59240;BME280;45010;53.640;10.578;2023-03-19T09:05:12;100648.44;;;24.34;33.75
59240;BME280;45010;53.640;10.578;2023-03-19T09:08:13;100679.75;;;24.50;33.69
59240;BME280;45010;53.640;10.578;2023-03-19T09:11:13;100682.41;;;24.50;33.63
59240;BME280;45010;53.640;10.578;2023-03-19T09:14:16;100657.03;;;24.36;33.60
59240;BME280;45010;53.640;10.578;2023-03-19T09:17:18;100662.59;;;24.46;33.63
59240;BME280;45010;53.640;10.578;2023-03-19T09:20:19;100677.66;;;24.52;33.95
59240;BME280;45010;53.640;10.578;2023-03-19T09:23:20;100651.72;;;24.36;33.97
59240;BME280;45010;53.640;10.578;2023-03-19T09:26:21;100687.25;;;24.53;33.98
59240;BME280;45010;53.640;10.578;2023-03-19T09:29:21;100675.69;;;24.48;34.11
59240;BME280;45010;53.640;10.578;2023-03-19T09:32:21;100689.94;;;24.53;34.30
59240;BME280;45010;53.640;10.578;2023-03-19T09:35:22;100694.25;;;24.54;35.05
59240;BME280;45010;53.640;10.578;2023-03-19T09:38:23;100683.47;;;24.49;34.84
59240;BME280;45010;53.640;10.578;2023-03-19T09:44:59;100693.19;;;24.55;34.86
59240;BME280;45010;53.640;10.578;2023-03-19T09:48:06;100689.47;;;24.56;35.25
59240;BME280;45010;53.640;10.578;2023-03-19T09:51:17;100688.22;;;24.59;35.46
59240;BME280;45010;53.640;10.578;2023-03-19T09:54:34;100691.44;;;24.61;35.50
59240;BME280;45010;53.640;10.578;2023-03-19T09:57:36;100703.72;;;24.62;35.68
59240;BME280;45010;53.640;10.578;2023-03-19T10:00:38;100697.81;;;24.60;35.41
59240;BME280;45010;53.640;10.578;2023-03-19T10:04:03;100703.84;;;24.67;35.57
59240;BME280;45010;53.640;10.578;2023-03-19T10:17:43;100700.03;;;24.75;35.68
59240;BME280;45010;53.640;10.578;2023-03-19T10:20:59;100700.59;;;24.77;35.59
59240;BME280;45010;53.640;10.578;2023-03-19T10:24:17;100703.88;;;24.79;35.59
59240;BME280;45010;53.640;10.578;2023-03-19T10:27:22;100696.91;;;24.78;35.48
59240;BME280;45010;53.640;10.578;2023-03-19T10:30:24;100674.66;;;24.61;35.50
59240;BME280;45010;53.640;10.578;2023-03-19T10:33:35;100704.91;;;24.78;35.44
59240;BME280;45010;53.640;10.578;2023-03-19T10:36:38;100710.00;;;24.80;35.27
59240;BME280;45010;53.640;10.578;2023-03-19T10:39:41;100702.69;;;24.75;35.43
59240;BME280;45010;53.640;10.578;2023-03-19T10:42:52;100711.66;;;24.81;35.31
59240;BME280;45010;53.640;10.578;2023-03-19T10:45:56;100689.72;;;24.67;35.36
59240;BME280;45010;53.640;10.578;2023-03-19T10:48:57;100710.38;;;24.83;34.81
59240;BME280;45010;53.640;10.578;2023-03-19T10:51:58;100707.47;;;24.85;34.19
59240;BME280;45010;53.640;10.578;2023-03-19T10:55:05;100690.84;;;24.71;34.03
59240;BME280;45010;53.640;10.578;2023-03-19T10:58:18;100705.41;;;24.87;33.58
59240;BME280;45010;53.640;10.578;2023-03-19T11:01:18;100714.19;;;24.88;33.26
59240;BME280;45010;53.640;10.578;2023-03-19T11:04:20;100702.63;;;24.82;33.15
59240;BME280;45010;53.640;10.578;2023-03-19T11:07:23;100710.47;;;24.89;33.25
59240;BME280;45010;53.640;10.578;2023-03-19T11:10:26;100706.69;;;24.84;33.37
59240;BME280;45010;53.640;10.578;2023-03-19T11:13:29;100687.19;;;24.72;33.43
59240;BME280;45010;53.640;10.578;2023-03-19T11:16:29;100712.69;;;24.92;33.37
59240;BME280;45010;53.640;10.578;2023-03-19T11:19:41;100708.16;;;24.92;33.26
59240;BME280;45010;53.640;10.578;2023-03-19T11:22:42;100714.31;;;24.93;33.34
59240;BME280;45010;53.640;10.578;2023-03-19T11:25:50;100700.84;;;24.88;33.28
59240;BME280;45010;53.640;10.578;2023-03-19T11:28:51;100716.97;;;24.93;33.30
59240;BME280;45010;53.640;10.578;2023-03-19T11:32:00;100707.81;;;24.89;33.29
59240;BME280;45010;53.640;10.578;2023-03-19T11:35:19;100712.22;;;24.95;33.27
59240;BME280;45010;53.640;10.578;2023-03-19T11:42:35;100698.75;;;24.90;33.27
59240;BME280;45010;53.640;10.578;2023-03-19T11:45:29;100711.66;;;24.93;33.37
59240;BME280;45010;53.640;10.578;2023-03-19T11:51:58;100710.59;;;24.94;33.57
59240;BME280;45010;53.640;10.578;2023-03-19T11:55:07;100701.53;;;24.95;33.39
59240;BME280;45010;53.640;10.578;2023-03-19T12:05:55;100680.69;;;24.92;33.67
59240;BME280;45010;53.640;10.578;2023-03-19T12:09:08;100694.47;;;25.01;33.50
59240;BME280;45010;53.640;10.578;2023-03-19T12:12:21;100682.19;;;25.00;33.41
59240;BME280;45010;53.640;10.578;2023-03-19T12:15:29;100692.03;;;24.99;33.35
59240;BME280;45010;53.640;10.578;2023-03-19T12:18:53;100685.97;;;25.04;33.04
59240;BME280;45010;53.640;10.578;2023-03-19T12:22:11;100691.91;;;25.06;33.02
59240;BME280;45010;53.640;10.578;2023-03-19T12:25:24;100685.75;;;25.05;33.09
59240;BME280;45010;53.640;10.578;2023-03-19T12:28:33;100675.56;;;25.02;32.99
59240;BME280;45010;53.640;10.578;2023-03-19T12:31:53;100676.25;;;25.09;33.02
59240;BME280;45010;53.640;10.578;2023-03-19T12:35:29;100669.28;;;25.08;32.95
59240;BME280;45010;53.640;10.578;2023-03-19T12:38:35;100672.53;;;25.10;32.89
59240;BME280;45010;53.640;10.578;2023-03-19T12:41:40;100666.03;;;25.06;32.94
59240;BME280;45010;53.640;10.578;2023-03-19T12:44:46;100650.97;;;25.00;33.04
59240;BME280;45010;53.640;10.578;2023-03-19T12:47:53;100670.41;;;25.12;32.77
59240;BME280;45010;53.640;10.578;2023-03-19T12:51:02;100666.13;;;25.11;32.83
59240;BME280;45010;53.640;10.578;2023-03-19T12:54:12;100666.69;;;25.14;32.98
59240;BME280;45010;53.640;10.578;2023-03-19T13:00:55;100666.69;;;25.14;32.90
59240;BME280;45010;53.640;10.578;2023-03-19T13:04:12;100658.13;;;25.11;32.93
59240;BME280;45010;53.640;10.578;2023-03-19T13:07:21;100669.47;;;25.19;32.69
59240;BME280;45010;53.640;10.578;2023-03-19T13:10:26;100648.72;;;25.09;33.09
59240;BME280;45010;53.640;10.578;2023-03-19T13:14:00;100664.63;;;25.16;32.80
59240;BME280;45010;53.640;10.578;2023-03-19T13:17:38;100669.00;;;25.22;32.80
59240;BME280;45010;53.640;10.578;2023-03-19T13:24:19;100691.16;;;25.22;32.84
59240;BME280;45010;53.640;10.578;2023-03-19T13:27:32;100701.28;;;25.20;32.91
59240;BME280;45010;53.640;10.578;2023-03-19T13:30:33;100699.44;;;25.21;32.98
59240;BME280;45010;53.640;10.578;2023-03-19T13:33:34;100689.78;;;25.20;33.05
59240;BME280;45010;53.640;10.578;2023-03-19T13:36:37;100688.75;;;25.21;33.10
59240;BME280;45010;53.640;10.578;2023-03-19T13:39:41;100682.34;;;25.22;33.10
59240;BME280;45010;53.640;10.578;2023-03-19T13:42:42;100680.47;;;25.22;33.48
59240;BME280;45010;53.640;10.578;2023-03-19T13:45:43;100672.47;;;25.22;33.24
59240;BME280;45010;53.640;10.578;2023-03-19T13:51:46;100670.41;;;25.24;33.35
59240;BME280;45010;53.640;10.578;2023-03-19T13:54:52;100668.53;;;25.25;33.57
59240;BME280;45010;53.640;10.578;2023-03-19T13:57:54;100677.13;;;25.27;33.50
59240;BME280;45010;53.640;10.578;2023-03-19T14:04:31;100657.75;;;25.20;33.48
59240;BME280;45010;53.640;10.578;2023-03-19T14:07:36;100664.84;;;25.26;33.73
59240;BME280;45010;53.640;10.578;2023-03-19T14:10:45;100664.84;;;25.26;33.88
59240;BME280;45010;53.640;10.578;2023-03-19T14:13:48;100666.44;;;25.27;33.62
59240;BME280;45010;53.640;10.578;2023-03-19T14:16:50;100665.41;;;25.28;33.43
59240;BME280;45010;53.640;10.578;2023-03-19T14:19:52;100656.22;;;25.24;33.65
59240;BME280;45010;53.640;10.578;2023-03-19T14:26:20;100660.63;;;25.30;33.72
59240;BME280;45010;53.640;10.578;2023-03-19T14:29:22;100659.00;;;25.29;33.56
59240;BME280;45010;53.640;10.578;2023-03-19T14:32:33;100671.31;;;25.30;33.52
59240;BME280;45010;53.640;10.578;2023-03-19T14:35:39;100672.91;;;25.31;33.48
59240;BME280;45010;53.640;10.578;2023-03-19T14:38:53;100680.03;;;25.25;33.53
59240;BME280;45010;53.640;10.578;2023-03-19T14:42:04;100670.97;;;25.27;33.47
59240;BME280;45010;53.640;10.578;2023-03-19T14:51:52;100681.03;;;25.36;33.88
59240;BME280;45010;53.640;10.578;2023-03-19T14:55:13;100687.19;;;25.37;33.75
59240;BME280;45010;53.640;10.578;2023-03-19T14:58:13;100686.38;;;25.36;33.99
59240;BME280;45010;53.640;10.578;2023-03-19T15:01:14;100683.69;;;25.36;33.80
59240;BME280;45010;53.640;10.578;2023-03-19T15:04:15;100675.47;;;25.38;33.75
59240;BME280;45010;53.640;10.578;2023-03-19T15:07:25;100661.56;;;25.24;34.02
59240;BME280;45010;53.640;10.578;2023-03-19T15:10:31;100698.19;;;25.41;33.95
59240;BME280;45010;53.640;10.578;2023-03-19T15:17:19;100709.44;;;25.43;33.97
59240;BME280;45010;53.640;10.578;2023-03-19T15:20:21;100702.38;;;25.36;33.92
59240;BME280;45010;53.640;10.578;2023-03-19T15:23:27;100693.13;;;25.27;33.79
59240;BME280;45010;53.640;10.578;2023-03-19T15:26:30;100709.66;;;25.41;33.97
59240;BME280;45010;53.640;10.578;2023-03-19T15:29:32;100715.84;;;25.42;33.88
59240;BME280;45010;53.640;10.578;2023-03-19T15:32:37;100707.81;;;25.42;33.77
59240;BME280;45010;53.640;10.578;2023-03-19T15:35:38;100713.16;;;25.42;33.70
59240;BME280;45010;53.640;10.578;2023-03-19T15:38:47;100713.72;;;25.44;33.84
59240;BME280;45010;53.640;10.578;2023-03-19T15:41:50;100701.91;;;25.39;33.83
59240;BME280;45010;53.640;10.578;2023-03-19T15:44:55;100710.81;;;25.45;33.86
59240;BME280;45010;53.640;10.578;2023-03-19T15:48:02;100711.66;;;25.46;33.91
59240;BME280;45010;53.640;10.578;2023-03-19T15:51:05;100707.94;;;25.47;34.08
59240;BME280;45010;53.640;10.578;2023-03-19T15:54:07;100712.44;;;25.46;34.02
59240;BME280;45010;53.640;10.578;2023-03-19T15:57:08;100702.59;;;25.47;34.08
59240;BME280;45010;53.640;10.578;2023-03-19T16:00:12;100694.47;;;25.42;34.14
59240;BME280;45010;53.640;10.578;2023-03-19T16:03:17;100708.88;;;25.41;34.36
59240;BME280;45010;53.640;10.578;2023-03-19T16:06:22;100706.44;;;25.39;34.21
59240;BME280;45010;53.640;10.578;2023-03-19T16:12:39;100717.44;;;25.43;34.11
59240;BME280;45010;53.640;10.578;2023-03-19T16:15:42;100731.41;;;25.45;33.89
59240;BME280;45010;53.640;10.578;2023-03-19T16:18:51;100722.22;;;25.41;34.07
59240;BME280;45010;53.640;10.578;2023-03-19T16:21:52;100726.50;;;25.42;34.04
59240;BME280;45010;53.640;10.578;2023-03-19T16:24:52;100738.91;;;25.48;33.98
59240;BME280;45010;53.640;10.578;2023-03-19T16:27:54;100744.25;;;25.48;33.79
59240;BME280;45010;53.640;10.578;2023-03-19T16:30:55;100745.31;;;25.47;33.93
59240;BME280;45010;53.640;10.578;2023-03-19T16:33:55;100741.03;;;25.46;34.11
59240;BME280;45010;53.640;10.578;2023-03-19T16:36:56;100733.47;;;25.43;34.18
59240;BME280;45010;53.640;10.578;2023-03-19T16:39:59;100752.28;;;25.48;34.14
59240;BME280;45010;53.640;10.578;2023-03-19T16:46:16;100752.28;;;25.48;34.25
59240;BME280;45010;53.640;10.578;2023-03-19T16:49:16;100752.28;;;25.48;34.13